YBBN/BNE METAR and TAF weather

Enter ICAO airport designator
Station Type Date Time Source
YBBN METAR 2022/06/30 12:30 UTC NOAA

YBBN 301230Z 16005KT 9999 OVC017 17/15 Q1023


Station Type Date Time Source
YBBN Decoded METAR 2022/06/30 12:30 UTC NOAA

Brisbane Airport M. O, Australia (YBBN) 27-23S 153-06E 5M
Jun 30, 2022 - 08:30 AM EDT / 2022.06.30 1230 UTC
Wind: from the SSE (160 degrees) at 6 MPH (5 KT):0
Visibility: greater than 7 mile(s):0
Sky conditions: overcast
Temperature: 62 F (17 C)
Dew Point: 59 F (15 C)
Relative Humidity: 88%
Pressure (altimeter): 30.21 in. Hg (1023 hPa)
ob: YBBN 301230Z 16005KT 9999 OVC017 17/15 Q1023
cycle: 12

Station Type Date Time Source
YBBN TAF 2022/06/30 12:41 UTC NOAA

TAF
AMD YBBN 301134Z 3012/0118 19008KT 9999 -SHRA SCT010 BKN020 OVC035
FM010200 16008KT 8000 -RA SCT008 BKN012 OVC030
FM010800 17006KT 4000 RA BKN008 BKN012 OVC025 INTER 3012/3015 5000 SHRA SCT010 BKN020 INTER 3015/3018 3000 SHRA BKN010
TEMPO 3018/0103 2500 RA BKN008
TEMPO 0103/0118 1500 RA BKN005

Example: see airport list